Time;durP1;ratioP1;P1;durP2;ratioP2;P2;SDS_P1;SDS_P2;PMS_P1;PMS_P2;Temp;Humidity;BMP_temperature;BMP_pressure;BME280_temperature;BME280_humidity;BME280_pressure;Samples;Min_cycle;Max_cycle;Signal;HPM_P1;HPM_P2
2022/08/18 00:01:21;;;;;;;2.60;2.22;;;19.00;99.90;;;;;;5093833;28;20091;-78
2022/08/18 00:03:48;;;;;;;2.88;2.67;;;18.90;99.90;;;;;;5075376;28;20482;-79
2022/08/18 00:06:15;;;;;;;3.40;2.53;;;18.80;99.90;;;;;;5075346;28;20027;-79
2022/08/18 00:08:40;;;;;;;3.38;2.92;;;18.80;99.90;;;;;;5075332;28;20036;-79
2022/08/18 00:11:07;;;;;;;4.00;3.05;;;18.70;99.90;;;;;;5075202;28;20085;-76
2022/08/18 00:13:33;;;;;;;4.07;3.60;;;18.70;99.90;;;;;;5093817;28;20030;-79
2022/08/18 00:15:59;;;;;;;5.57;3.75;;;18.70;99.90;;;;;;5075509;28;20540;-80
2022/08/18 00:18:25;;;;;;;7.00;3.88;;;18.70;99.90;;;;;;5094426;28;20020;-80
2022/08/18 00:20:50;;;;;;;6.07;4.07;;;18.60;99.90;;;;;;5075835;28;20095;-77
2022/08/18 00:23:17;;;;;;;4.18;2.88;;;18.70;99.90;;;;;;5093697;28;20092;-78
2022/08/18 00:25:44;;;;;;;3.22;2.92;;;18.70;99.90;;;;;;5093683;28;20012;-79
2022/08/18 00:28:10;;;;;;;3.78;2.90;;;18.70;99.90;;;;;;5093391;28;20459;-78
2022/08/18 00:30:36;;;;;;;2.88;2.63;;;18.70;99.90;;;;;;5094549;28;20017;-74
2022/08/18 00:33:02;;;;;;;5.45;3.22;;;18.70;99.90;;;;;;5075086;28;20525;-78
2022/08/18 00:35:31;;;;;;;3.20;2.65;;;18.80;99.90;;;;;;5075306;28;20015;-79
2022/08/18 00:37:59;;;;;;;2.85;2.47;;;18.80;99.90;;;;;;5093507;28;20035;-76
2022/08/18 00:40:29;;;;;;;3.67;2.75;;;18.80;99.90;;;;;;5093425;28;20098;-79
2022/08/18 00:42:58;;;;;;;3.10;2.63;;;18.80;99.90;;;;;;5093605;28;20028;-79
2022/08/18 00:45:44;;;;;;;5.75;2.60;;;18.80;99.90;;;;;;5093657;28;20016;-78
2022/08/18 00:48:11;;;;;;;5.50;2.65;;;18.80;99.90;;;;;;5092709;28;20176;-80
2022/08/18 00:50:38;;;;;;;3.50;3.20;;;18.80;99.90;;;;;;5093170;28;20020;-80
2022/08/18 00:53:10;;;;;;;2.92;2.72;;;18.80;99.90;;;;;;5093148;28;20460;-80
2022/08/18 00:55:40;;;;;;;4.13;2.70;;;18.80;99.90;;;;;;5093338;28;20016;-79
2022/08/18 00:58:10;;;;;;;8.98;2.72;;;18.80;99.90;;;;;;5074834;28;20024;-80
2022/08/18 01:00:36;;;;;;;2.17;2.08;;;18.70;99.90;;;;;;5093667;28;20090;-79
2022/08/18 01:03:07;;;;;;;3.38;2.67;;;18.80;99.90;;;;;;5075168;28;20028;-80
2022/08/18 01:05:39;;;;;;;3.53;3.13;;;18.80;99.90;;;;;;5093187;28;20086;-80
2022/08/18 01:08:10;;;;;;;3.50;3.20;;;18.80;99.90;;;;;;5074420;28;20028;-80
2022/08/18 01:10:37;;;;;;;4.22;2.67;;;18.70;99.90;;;;;;5093033;28;20020;-80
2022/08/18 01:13:03;;;;;;;4.20;2.90;;;18.70;99.90;;;;;;5075128;28;20023;-78
2022/08/18 01:15:29;;;;;;;3.58;3.05;;;18.80;99.90;;;;;;5093192;28;20028;-79
2022/08/18 01:24:06;;;;;;;2.85;2.65;;;18.60;99.90;;;;;;5092802;28;20048;-79
2022/08/18 01:26:36;;;;;;;2.97;2.78;;;18.60;99.90;;;;;;5074858;28;20063;-79
2022/08/18 01:29:10;;;;;;;4.72;2.60;;;18.50;99.90;;;;;;5092778;28;20360;-79
2022/08/18 01:31:46;;;;;;;4.13;2.75;;;18.50;99.90;;;;;;5092756;28;20016;-79
2022/08/18 01:34:12;;;;;;;3.20;2.70;;;18.50;99.90;;;;;;5074618;28;20115;-79
2022/08/18 01:36:40;;;;;;;4.38;3.30;;;18.40;99.90;;;;;;5074579;28;20467;-76
2022/08/18 01:39:07;;;;;;;3.08;2.78;;;18.40;99.90;;;;;;5092668;28;20552;-78
2022/08/18 01:41:33;;;;;;;3.05;2.75;;;18.30;99.90;;;;;;5092589;28;20039;-78
2022/08/18 01:44:01;;;;;;;3.33;2.75;;;18.30;99.90;;;;;;5092816;28;20099;-79
2022/08/18 01:46:29;;;;;;;2.85;2.55;;;18.10;99.90;;;;;;5092504;28;20027;-77
2022/08/18 01:48:57;;;;;;;4.82;2.75;;;18.10;99.90;;;;;;5074434;28;20032;-77
2022/08/18 01:51:23;;;;;;;4.60;2.90;;;18.10;99.90;;;;;;5074613;28;20020;-79
2022/08/18 01:53:48;;;;;;;3.10;2.80;;;18.10;99.90;;;;;;5074408;28;20120;-81
2022/08/18 01:56:16;;;;;;;2.50;2.30;;;18.10;99.90;;;;;;5092621;28;20020;-78
2022/08/18 01:58:44;;;;;;;5.53;3.22;;;18.10;99.90;;;;;;5092952;28;20046;-77
2022/08/18 02:01:12;;;;;;;3.67;2.80;;;18.10;99.90;;;;;;5077336;28;20020;-77
2022/08/18 02:03:41;;;;;;;2.95;2.67;;;18.10;99.90;;;;;;5095379;28;20023;-79
2022/08/18 02:06:12;;;;;;;3.10;2.80;;;18.10;99.90;;;;;;5095627;28;20051;-78
2022/08/18 02:08:38;;;;;;;3.67;2.70;;;18.20;99.90;;;;;;5076939;28;20082;-79
2022/08/18 02:11:06;;;;;;;3.63;2.53;;;18.10;99.90;;;;;;5095224;28;20149;-80
2022/08/18 02:13:32;;;;;;;2.80;2.47;;;18.10;99.90;;;;;;5095633;28;20467;-78
2022/08/18 02:15:59;;;;;;;2.50;2.30;;;18.00;99.90;;;;;;5077539;28;20383;-79
2022/08/18 02:18:28;;;;;;;4.43;2.60;;;18.00;99.90;;;;;;5095965;28;20030;-76
2022/08/18 02:20:55;;;;;;;4.25;2.72;;;18.00;99.90;;;;;;5077434;28;20048;-81
2022/08/18 02:23:21;;;;;;;3.55;3.10;;;17.90;99.90;;;;;;5096022;28;20028;-79
2022/08/18 02:25:47;;;;;;;3.17;2.85;;;17.90;99.90;;;;;;5077609;28;20024;-77
2022/08/18 02:28:13;;;;;;;3.72;3.03;;;18.00;99.90;;;;;;5095557;28;20047;-77
2022/08/18 02:30:39;;;;;;;3.17;2.88;;;18.00;99.90;;;;;;5095651;28;20070;-77
2022/08/18 02:33:07;;;;;;;3.13;2.83;;;18.00;99.90;;;;;;5095646;28;20039;-78
2022/08/18 02:35:33;;;;;;;4.15;2.78;;;18.00;99.90;;;;;;5094991;28;20041;-77
2022/08/18 02:38:03;;;;;;;3.20;2.85;;;18.00;99.90;;;;;;5094927;28;20061;-79
2022/08/18 02:40:32;;;;;;;6.65;3.17;;;17.90;99.90;;;;;;5094870;28;20020;-78
2022/08/18 02:42:58;;;;;;;3.13;2.90;;;17.90;99.90;;;;;;5095189;28;20028;-77
2022/08/18 02:45:24;;;;;;;3.70;3.28;;;18.00;99.90;;;;;;5095207;28;20039;-79
2022/08/18 02:47:54;;;;;;;4.22;3.08;;;18.00;99.90;;;;;;5094802;28;20066;-79
2022/08/18 02:50:21;;;;;;;3.75;3.20;;;17.90;99.90;;;;;;5094381;28;20024;-75
2022/08/18 02:52:47;;;;;;;4.05;3.10;;;18.00;99.90;;;;;;5094788;28;20035;-77
2022/08/18 02:55:13;;;;;;;3.33;2.75;;;18.00;99.90;;;;;;5095043;28;20376;-77
2022/08/18 02:57:43;;;;;;;3.75;2.72;;;18.00;99.90;;;;;;5094782;28;20107;-81
2022/08/18 03:00:12;;;;;;;3.05;2.75;;;17.90;99.90;;;;;;5094775;28;20031;-79
2022/08/18 03:02:37;;;;;;;3.83;3.05;;;17.90;99.90;;;;;;5094632;28;20125;-76
2022/08/18 03:05:04;;;;;;;4.53;4.07;;;17.90;99.90;;;;;;5094569;28;20133;-78
2022/08/18 03:07:30;;;;;;;3.10;2.80;;;17.90;99.90;;;;;;5094614;28;20398;-78
2022/08/18 03:09:56;;;;;;;5.40;3.15;;;17.90;99.90;;;;;;5076467;28;20032;-79
2022/08/18 03:12:21;;;;;;;3.97;2.78;;;17.90;99.90;;;;;;5094635;28;20016;-82
2022/08/18 03:14:47;;;;;;;4.47;3.28;;;17.90;99.90;;;;;;5094404;28;20028;-78
2022/08/18 03:17:13;;;;;;;3.17;2.88;;;17.80;99.90;;;;;;5075901;28;20030;-78
2022/08/18 03:19:39;;;;;;;4.18;2.55;;;17.70;99.90;;;;;;5094441;28;20051;-79
2022/08/18 03:22:08;;;;;;;3.65;3.05;;;17.60;99.90;;;;;;5094164;28;20110;-77
2022/08/18 03:24:35;;;;;;;3.55;2.80;;;17.40;99.90;;;;;;5093981;28;20022;-76
2022/08/18 03:27:05;;;;;;;6.28;2.97;;;17.40;99.90;;;;;;5075717;28;20034;-79
2022/08/18 03:29:31;;;;;;;3.40;3.10;;;17.20;99.90;;;;;;5093969;28;20135;-79
2022/08/18 03:31:56;;;;;;;6.68;4.95;;;17.20;99.90;;;;;;5076073;28;20119;-78
2022/08/18 03:34:22;;;;;;;3.42;2.42;;;17.20;99.90;;;;;;5075634;28;20102;-75
2022/08/18 03:36:49;;;;;;;4.10;3.70;;;17.30;99.90;;;;;;5094153;28;20031;-77
2022/08/18 03:39:16;;;;;;;6.18;3.80;;;17.30;99.90;;;;;;5093728;28;20069;-78
2022/08/18 03:41:43;;;;;;;10.02;3.63;;;17.30;99.90;;;;;;5075924;28;20024;-78
2022/08/18 03:44:10;;;;;;;4.72;3.30;;;17.30;99.90;;;;;;5093827;28;20024;-78
2022/08/18 03:46:36;;;;;;;4.45;3.53;;;17.30;99.90;;;;;;5093949;28;20031;-77
2022/08/18 03:49:02;;;;;;;3.63;2.95;;;17.30;99.90;;;;;;5093862;28;20075;-78
2022/08/18 03:51:31;;;;;;;6.13;3.83;;;17.30;99.90;;;;;;5093816;28;20024;-79
2022/08/18 03:53:59;;;;;;;5.28;3.33;;;17.30;99.90;;;;;;5075582;28;20036;-79
2022/08/18 03:56:29;;;;;;;8.15;3.58;;;17.30;99.90;;;;;;5093472;28;20514;-78
2022/08/18 03:58:58;;;;;;;5.75;3.47;;;17.30;99.90;;;;;;5093527;28;20035;-78
2022/08/18 04:01:27;;;;;;;5.93;3.47;;;17.40;99.90;;;;;;5093356;28;20030;-76
2022/08/18 04:04:01;;;;;;;4.20;3.45;;;17.40;99.90;;;;;;5093284;28;20506;-79
2022/08/18 04:06:30;;;;;;;7.32;3.33;;;17.40;99.90;;;;;;5075799;28;20493;-79
2022/08/18 04:08:59;;;;;;;6.20;3.35;;;17.50;99.90;;;;;;5075033;28;20564;-78
2022/08/18 04:11:27;;;;;;;8.30;4.80;;;17.50;99.90;;;;;;5093425;28;20550;-79
2022/08/18 04:13:56;;;;;;;5.18;3.15;;;17.50;99.90;;;;;;5093550;28;20019;-78
2022/08/18 04:16:26;;;;;;;10.27;3.33;;;17.50;99.90;;;;;;5093324;28;20363;-77
2022/08/18 04:18:52;;;;;;;6.05;2.88;;;17.50;99.90;;;;;;5074985;28;20432;-78
2022/08/18 04:21:18;;;;;;;8.43;3.47;;;17.60;99.90;;;;;;5092503;28;20036;-79
2022/08/18 04:23:44;;;;;;;6.28;3.58;;;17.50;99.90;;;;;;5093350;28;20106;-78
2022/08/18 04:26:11;;;;;;;5.00;3.42;;;17.50;99.90;;;;;;5074637;28;20115;-78
2022/08/18 04:28:37;;;;;;;4.25;3.13;;;17.50;99.90;;;;;;5074733;28;20483;-78
2022/08/18 04:31:12;;;;;;;8.05;3.70;;;17.40;99.90;;;;;;5092948;28;20103;-77
2022/08/18 04:33:38;;;;;;;4.55;3.42;;;17.30;99.90;;;;;;5074564;28;20372;-78
2022/08/18 04:36:12;;;;;;;5.45;2.97;;;17.30;99.90;;;;;;5074988;28;20039;-78
2022/08/18 04:38:43;;;;;;;5.40;3.33;;;17.40;99.90;;;;;;5074598;28;20471;-78
2022/08/18 04:41:12;;;;;;;10.05;4.15;;;17.40;99.90;;;;;;5092764;28;20024;-78
2022/08/18 04:43:38;;;;;;;16.42;3.85;;;17.50;99.90;;;;;;5074611;28;20016;-79
2022/08/18 04:46:05;;;;;;;5.07;4.25;;;17.50;99.90;;;;;;5092898;28;20439;-78
2022/08/18 04:48:39;;;;;;;3.95;2.72;;;17.60;99.90;;;;;;5092529;28;20040;-76
2022/08/18 04:51:17;;;;;;;8.70;4.13;;;18.10;99.90;;;;;;5075895;28;20024;-78
2022/08/18 04:53:44;;;;;;;6.07;3.30;;;19.00;99.90;;;;;;5092957;28;20016;-78
2022/08/18 04:56:37;;;;;;;5.20;3.45;;;19.50;99.90;;;;;;5093266;28;20016;-78
2022/08/18 04:59:06;;;;;;;7.70;3.28;;;20.10;99.90;;;;;;5093800;28;20036;-77
2022/08/18 05:01:41;;;;;;;4.45;3.65;;;20.40;99.90;;;;;;5077370;28;20020;-77
2022/08/18 05:04:07;;;;;;;3.10;2.80;;;20.40;99.90;;;;;;5074980;28;20500;-78
2022/08/18 05:06:35;;;;;;;3.10;2.80;;;20.50;99.90;;;;;;5074431;28;20383;-78
2022/08/18 05:09:03;;;;;;;6.65;3.33;;;20.40;99.90;;;;;;5092709;28;20403;-76
2022/08/18 05:11:33;;;;;;;3.15;2.85;;;20.30;99.90;;;;;;5092683;28;20032;-77
2022/08/18 05:14:06;;;;;;;6.95;3.95;;;20.40;99.90;;;;;;5092511;28;20012;-78
2022/08/18 05:16:35;;;;;;;12.13;3.70;;;20.50;99.90;;;;;;5092407;28;20039;-78
2022/08/18 05:19:03;;;;;;;4.07;3.67;;;20.60;99.90;;;;;;5092322;28;20023;-78
2022/08/18 05:21:29;;;;;;;7.68;3.40;;;20.60;99.90;;;;;;5074443;28;20047;-80
2022/08/18 05:23:55;;;;;;;11.27;3.22;;;20.70;99.90;;;;;;5074432;28;20016;-79
2022/08/18 05:26:21;;;;;;;3.85;3.28;;;20.60;99.90;;;;;;5073945;28;20024;-78
2022/08/18 05:28:47;;;;;;;5.70;3.28;;;20.60;99.90;;;;;;5092906;28;20040;-77
2022/08/18 05:31:16;;;;;;;3.05;2.75;;;20.60;99.90;;;;;;5092430;28;20028;-79
2022/08/18 05:33:43;;;;;;;4.22;2.95;;;20.60;99.90;;;;;;5075034;28;20119;-78
2022/08/18 05:36:34;;;;;;;6.90;2.83;;;20.60;99.90;;;;;;5095900;28;20020;-78
2022/08/18 05:39:18;;;;;;;5.43;3.78;;;20.80;99.90;;;;;;5096484;28;20084;-79
2022/08/18 05:42:01;;;;;;;4.18;3.38;;;20.90;99.90;;;;;;5078155;28;20008;-79
2022/08/18 05:44:30;;;;;;;4.97;3.55;;;21.10;99.90;;;;;;5078250;28;20478;-79
2022/08/18 05:47:03;;;;;;;4.22;3.10;;;21.10;99.90;;;;;;5096256;28;20024;-78
2022/08/18 05:49:30;;;;;;;5.22;3.83;;;21.20;99.90;;;;;;5096430;28;20103;-77
2022/08/18 05:52:33;;;;;;;4.90;3.80;;;21.30;99.90;;;;;;5096268;28;20467;-79
2022/08/18 05:57:56;;;;;;;4.43;3.42;;;21.80;99.90;;;;;;5095863;28;20035;-79
2022/08/18 06:00:24;;;;;;;4.00;3.47;;;22.00;99.90;;;;;;5096103;28;20020;-79
2022/08/18 06:03:22;;;;;;;9.02;3.80;;;22.40;99.90;;;;;;5096359;28;20133;-79
2022/08/18 06:06:00;;;;;;;4.53;4.03;;;22.00;99.90;;;;;;5096057;28;20028;-79
2022/08/18 06:08:41;;;;;;;4.38;3.75;;;21.90;99.90;;;;;;5096111;28;20067;-78
2022/08/18 06:11:08;;;;;;;4.82;3.58;;;21.90;99.90;;;;;;5077774;28;20162;-80
2022/08/18 06:13:41;;;;;;;6.03;3.60;;;21.90;99.90;;;;;;5096175;28;20024;-79
2022/08/18 06:16:31;;;;;;;7.93;3.90;;;22.20;99.90;;;;;;5077705;28;20043;-78
2022/08/18 06:19:43;;;;;;;5.07;3.22;;;22.10;99.90;;;;;;5078046;28;20035;-79
2022/08/18 06:22:49;;;;;;;4.70;3.85;;;22.30;99.90;;;;;;5086932;28;20051;-77
2022/08/18 06:25:54;;;;;;;4.55;3.28;;;22.30;99.90;;;;;;5095323;28;20030;-81
2022/08/18 06:28:20;;;;;;;13.45;4.07;;;22.50;99.70;;;;;;5094266;28;20043;-78
2022/08/18 06:30:56;;;;;;;7.88;5.18;;;22.70;99.80;;;;;;5077293;28;20357;-77
2022/08/18 06:33:49;;;;;;;7.43;4.03;;;22.80;99.60;;;;;;5094865;28;20543;-77
2022/08/18 06:36:39;;;;;;;4.10;3.70;;;22.90;98.90;;;;;;5076976;28;20024;-78
2022/08/18 06:39:11;;;;;;;8.25;3.85;;;;;;;;;;5076522;28;20031;-77
2022/08/18 06:41:41;;;;;;;10.00;3.97;;;23.40;97.70;;;;;;5076716;28;20069;-80
2022/08/18 06:44:17;;;;;;;5.80;3.53;;;23.50;98.20;;;;;;5076110;28;20411;-80
2022/08/18 06:46:53;;;;;;;3.33;3.03;;;23.60;97.70;;;;;;5076723;28;20020;-79
2022/08/18 06:49:42;;;;;;;4.80;3.45;;;23.70;97.90;;;;;;5095103;28;20050;-77
2022/08/18 06:52:51;;;;;;;4.13;3.33;;;23.80;97.60;;;;;;5095106;28;20103;-79
2022/08/18 06:55:29;;;;;;;5.65;3.72;;;23.90;97.30;;;;;;5085652;28;20483;-77
2022/08/18 06:58:05;;;;;;;3.80;3.10;;;24.00;97.40;;;;;;5076669;28;20019;-79
2022/08/18 07:00:34;;;;;;;3.63;3.33;;;24.10;96.90;;;;;;5076322;28;20035;-77
2022/08/18 07:03:36;;;;;;;4.90;3.83;;;24.30;96.40;;;;;;5076712;28;20103;-76
2022/08/18 07:06:04;;;;;;;4.45;3.35;;;24.50;95.90;;;;;;5080492;28;20135;-80
2022/08/18 07:08:33;;;;;;;8.27;3.30;;;24.60;96.10;;;;;;5076754;28;20102;-78
2022/08/18 07:11:20;;;;;;;4.68;3.30;;;24.80;95.30;;;;;;5094535;28;20036;-77
2022/08/18 07:13:49;;;;;;;3.42;3.13;;;24.90;94.90;;;;;;5094655;28;20058;-77
2022/08/18 07:16:37;;;;;;;7.93;3.65;;;25.10;99.90;;;;;;5076296;28;20552;-77
2022/08/18 07:19:15;;;;;;;3.60;3.25;;;25.20;95.50;;;;;;5093609;28;20044;-78
2022/08/18 07:21:44;;;;;;;5.10;3.40;;;;;;;;;;5094028;28;20101;-76
2022/08/18 07:24:13;;;;;;;4.72;3.28;;;;;;;;;;5076632;28;20024;-80
2022/08/18 07:27:16;;;;;;;6.10;3.97;;;25.90;99.70;;;;;;5094172;28;20028;-77
2022/08/18 07:30:04;;;;;;;4.55;3.53;;;25.90;99.80;;;;;;5094099;28;20495;-79
2022/08/18 07:32:38;;;;;;;7.35;3.97;;;26.10;99.60;;;;;;5093726;28;20021;-79
2022/08/18 07:35:07;;;;;;;7.28;3.95;;;26.30;99.60;;;;;;5093731;28;20051;-79
2022/08/18 07:37:44;;;;;;;4.22;3.75;;;26.60;99.90;;;;;;5093773;28;20023;-79
2022/08/18 07:40:19;;;;;;;4.05;3.38;;;26.40;99.90;;;;;;5094351;28;20040;-79
2022/08/18 07:42:48;;;;;;;3.47;3.08;;;26.50;99.90;;;;;;5093802;28;20035;-77
2022/08/18 07:45:23;;;;;;;6.40;3.65;;;;;;;;;;5095468;28;20570;-77
2022/08/18 07:48:06;;;;;;;3.88;3.47;;;26.80;93.40;;;;;;5098924;28;20028;-73
2022/08/18 07:51:02;;;;;;;3.55;3.20;;;26.90;92.00;;;;;;5093997;28;20485;-78
2022/08/18 07:53:50;;;;;;;3.08;2.45;;;27.10;92.30;;;;;;5074410;28;20036;-80
2022/08/18 07:56:46;;;;;;;4.43;2.92;;;27.40;91.80;;;;;;5092763;28;20039;-79
2022/08/18 07:59:47;;;;;;;7.75;3.03;;;27.50;91.10;;;;;;5074078;28;20399;-80
2022/08/18 08:02:35;;;;;;;3.60;3.15;;;27.70;90.40;;;;;;5093890;28;20108;-80
2022/08/18 08:05:24;;;;;;;3.08;2.60;;;28.00;87.50;;;;;;5093722;28;20032;-78
2022/08/18 08:07:58;;;;;;;3.40;2.67;;;28.40;83.40;;;;;;5093457;28;20039;-79
2022/08/18 08:11:01;;;;;;;8.27;3.55;;;28.70;82.20;;;;;;5093673;28;20028;-79
2022/08/18 08:13:37;;;;;;;2.45;1.92;;;28.90;81.30;;;;;;5062029;28;20035;-78
2022/08/18 08:16:18;;;;;;;3.40;2.17;;;29.10;78.90;;;;;;5093482;28;20019;-79
2022/08/18 08:19:10;;;;;;;3.53;2.20;;;29.30;77.10;;;;;;5093435;28;20077;-77
2022/08/18 08:21:43;;;;;;;2.40;1.98;;;29.40;74.00;;;;;;5075117;28;20056;-79
2022/08/18 08:24:23;;;;;;;3.22;2.20;;;29.50;72.80;;;;;;5074924;28;20482;-80
2022/08/18 08:27:07;;;;;;;2.50;2.10;;;29.50;73.90;;;;;;5093126;28;20035;-78
2022/08/18 08:29:46;;;;;;;5.50;2.20;;;29.50;71.40;;;;;;5093109;28;20039;-80
2022/08/18 08:32:25;;;;;;;5.90;2.35;;;29.50;70.70;;;;;;5092738;28;20060;-78
2022/08/18 08:35:01;;;;;;;2.58;1.90;;;29.40;70.30;;;;;;5074591;28;20024;-76
2022/08/18 08:37:34;;;;;;;2.30;2.10;;;29.50;71.10;;;;;;5092268;28;20032;-80
2022/08/18 08:40:08;;;;;;;2.78;2.15;;;29.70;71.00;;;;;;5074364;28;20114;-80
2022/08/18 08:42:59;;;;;;;4.30;2.15;;;29.80;71.20;;;;;;5092884;28;20494;-80
2022/08/18 08:46:15;;;;;;;3.42;2.90;;;30.10;70.10;;;;;;5092516;28;20039;-79
2022/08/18 08:48:44;;;;;;;;;;;30.40;71.50;;;;;;5075578;28;20052;-78
2022/08/18 08:51:47;;;;;;;2.90;2.60;;;30.60;69.60;;;;;;5092822;28;20352;-77
2022/08/18 08:54:18;;;;;;;7.55;2.03;;;30.70;69.20;;;;;;5074512;28;20024;-79
2022/08/18 08:56:47;;;;;;;4.95;2.10;;;30.90;69.10;;;;;;5092533;28;20023;-79
2022/08/18 08:59:16;;;;;;;3.72;2.10;;;31.00;67.20;;;;;;5092834;28;20089;-78
2022/08/18 09:02:01;;;;;;;3.28;2.42;;;31.10;67.80;;;;;;5092678;28;20356;-78
2022/08/18 09:04:46;;;;;;;3.67;1.80;;;31.30;66.60;;;;;;5091932;28;20089;-78
2022/08/18 09:07:21;;;;;;;2.25;2.05;;;31.50;66.30;;;;;;5092562;28;20364;-78
2022/08/18 09:09:46;;;;;;;4.80;1.92;;;31.60;65.10;;;;;;5074675;28;20044;-79
2022/08/18 09:12:30;;;;;;;2.10;1.80;;;31.60;63.20;;;;;;5074964;28;20471;-78
2022/08/18 09:15:08;;;;;;;3.90;2.00;;;31.70;62.60;;;;;;5093006;28;20031;-78
2022/08/18 09:17:49;;;;;;;2.63;2.03;;;31.80;62.80;;;;;;5092953;28;20431;-79
2022/08/18 09:20:25;;;;;;;3.85;1.92;;;31.80;62.30;;;;;;5092551;28;20047;-79
2022/08/18 09:22:59;;;;;;;1.73;1.60;;;31.80;62.80;;;;;;5074669;28;20016;-79
2022/08/18 09:25:42;;;;;;;4.13;1.80;;;31.80;62.90;;;;;;5092961;28;20036;-78
2022/08/18 09:28:11;;;;;;;3.20;1.77;;;31.80;61.50;;;;;;5092983;28;20544;-79
2022/08/18 09:31:00;;;;;;;2.45;1.92;;;31.80;61.10;;;;;;5075095;28;20081;-80
2022/08/18 09:33:30;;;;;;;2.67;1.67;;;31.90;62.80;;;;;;5074414;28;20012;-79
2022/08/18 09:36:21;;;;;;;5.05;2.35;;;32.10;62.10;;;;;;5092781;28;20494;-80
2022/08/18 09:42:06;;;;;;;2.20;1.80;;;32.30;60.70;;;;;;5093107;28;20043;-79
2022/08/18 09:44:46;;;;;;;3.75;1.67;;;32.50;59.80;;;;;;5092566;28;20016;-78
2022/08/18 09:47:32;;;;;;;2.90;1.98;;;32.50;59.50;;;;;;5091996;28;20020;-79
2022/08/18 09:50:04;;;;;;;5.43;1.70;;;32.60;60.10;;;;;;5077635;28;20047;-78
2022/08/18 09:52:33;;;;;;;2.95;1.90;;;32.60;59.60;;;;;;5091804;28;20019;-81
2022/08/18 09:55:04;;;;;;;5.35;2.30;;;32.60;60.10;;;;;;5073823;28;20348;-79
2022/08/18 09:57:35;;;;;;;4.20;2.17;;;32.70;61.10;;;;;;5091872;28;20016;-79
2022/08/18 10:00:13;;;;;;;3.08;1.88;;;32.70;60.70;;;;;;5091442;28;20545;-79
2022/08/18 10:02:40;;;;;;;2.42;1.60;;;32.80;60.80;;;;;;5073806;28;20448;-79
2022/08/18 10:05:18;;;;;;;5.53;1.60;;;33.00;61.70;;;;;;5091932;28;20084;-77
2022/08/18 10:08:02;;;;;;;3.95;1.58;;;33.10;59.80;;;;;;5073231;28;20024;-78
2022/08/18 10:10:48;;;;;;;3.45;2.25;;;33.20;59.20;;;;;;5092210;28;20077;-79
2022/08/18 10:13:32;;;;;;;2.75;1.65;;;33.40;59.30;;;;;;5073775;28;20035;-78
2022/08/18 10:16:04;;;;;;;2.28;1.50;;;33.60;58.50;;;;;;5073368;28;20012;-79
2022/08/18 10:18:41;;;;;;;1.60;1.50;;;33.70;56.90;;;;;;5091334;28;20467;-76
2022/08/18 10:21:16;;;;;;;3.95;1.83;;;33.90;57.40;;;;;;5094004;28;20052;-78
2022/08/18 10:23:53;;;;;;;1.35;1.25;;;33.90;57.20;;;;;;5095217;28;20024;-77
2022/08/18 10:26:36;;;;;;;3.05;1.73;;;33.80;57.10;;;;;;5095209;28;20051;-80
2022/08/18 10:29:06;;;;;;;6.07;1.95;;;33.90;57.80;;;;;;5077255;28;20036;-79
2022/08/18 10:31:54;;;;;;;2.63;1.63;;;33.90;56.60;;;;;;5076739;28;20048;-79
2022/08/18 10:34:41;;;;;;;4.72;1.60;;;34.00;56.50;;;;;;5076742;28;20463;-79
2022/08/18 10:37:25;;;;;;;2.03;1.52;;;34.10;56.30;;;;;;5095513;28;20027;-80
2022/08/18 10:40:09;;;;;;;2.63;1.48;;;34.10;55.90;;;;;;5095557;28;20024;-79
2022/08/18 10:42:41;;;;;;;4.10;1.77;;;34.00;55.70;;;;;;5095331;28;20031;-78
2022/08/18 10:45:26;;;;;;;4.07;1.48;;;34.10;55.90;;;;;;5076895;28;20118;-80
2022/08/18 10:48:01;;;;;;;6.00;1.60;;;34.20;57.10;;;;;;5076660;28;20479;-79
2022/08/18 10:50:31;;;;;;;3.67;1.60;;;34.30;56.20;;;;;;5095194;28;20038;-80
2022/08/18 10:53:18;;;;;;;4.18;1.50;;;34.30;55.90;;;;;;5095128;28;20020;-80
2022/08/18 10:55:55;;;;;;;7.15;1.85;;;34.30;54.60;;;;;;5094945;28;20384;-79
2022/08/18 10:58:39;;;;;;;3.28;1.40;;;34.40;55.60;;;;;;5094727;28;20116;-78
2022/08/18 11:01:17;;;;;;;1.55;1.30;;;34.40;54.40;;;;;;5094991;28;20468;-79
2022/08/18 11:04:03;;;;;;;2.05;1.85;;;34.40;54.60;;;;;;5095090;28;20031;-80
2022/08/18 11:06:38;;;;;;;2.20;1.10;;;34.50;53.90;;;;;;5094604;28;21139;-77
2022/08/18 11:09:04;;;;;;;4.80;1.60;;;34.50;54.10;;;;;;5099561;28;20039;-77
2022/08/18 11:11:43;;;;;;;4.68;1.83;;;34.40;53.90;;;;;;5100143;28;20384;-75
2022/08/18 11:14:40;;;;;;;1.40;1.30;;;34.40;54.80;;;;;;5095127;28;20035;-79
2022/08/18 11:17:30;;;;;;;4.78;1.67;;;34.50;54.50;;;;;;5076358;28;20073;-79
2022/08/18 11:19:59;;;;;;;3.22;1.45;;;34.50;54.40;;;;;;5093231;28;20495;-81
2022/08/18 11:22:28;;;;;;;3.63;1.75;;;34.50;54.80;;;;;;5094190;28;20024;-80
2022/08/18 11:24:53;;;;;;;1.80;1.63;;;34.50;54.20;;;;;;5093430;28;20020;-80
2022/08/18 11:27:23;;;;;;;3.70;1.55;;;34.40;53.20;;;;;;5093291;28;20031;-80
2022/08/18 11:29:50;;;;;;;3.15;1.55;;;34.20;53.50;;;;;;5094397;28;20060;-80
2022/08/18 11:32:21;;;;;;;4.68;1.40;;;34.20;53.50;;;;;;5093722;28;20363;-77
2022/08/18 11:35:05;;;;;;;3.47;2.22;;;34.20;53.90;;;;;;5094378;28;20020;-80
2022/08/18 11:37:40;;;;;;;2.83;1.60;;;34.20;54.30;;;;;;5094050;28;20020;-80
2022/08/18 11:40:20;;;;;;;1.60;1.40;;;34.20;53.80;;;;;;5094358;28;20710;-80
2022/08/18 11:42:52;;;;;;;4.10;1.60;;;34.20;54.60;;;;;;5094326;28;20080;-80
2022/08/18 11:45:20;;;;;;;1.60;1.48;;;34.20;54.20;;;;;;5093758;28;20493;-80
2022/08/18 11:48:18;;;;;;;2.78;1.40;;;34.30;54.80;;;;;;5093338;28;20036;-79
2022/08/18 11:51:21;;;;;;;3.75;1.60;;;34.40;54.40;;;;;;5093873;28;20024;-81
2022/08/18 11:53:59;;;;;;;2.38;1.40;;;34.40;53.90;;;;;;5089151;28;20036;-78
2022/08/18 11:56:35;;;;;;;2.63;1.38;;;34.40;53.50;;;;;;5093436;28;20027;-79
2022/08/18 11:59:06;;;;;;;1.98;1.70;;;34.50;53.80;;;;;;5093621;28;20027;-80
2022/08/18 12:01:37;;;;;;;8.68;2.83;;;34.50;53.60;;;;;;5093410;28;20031;-80
2022/08/18 12:04:12;;;;;;;2.13;1.10;;;34.50;53.50;;;;;;5074956;28;20463;-78
2022/08/18 12:06:39;;;;;;;;;;;34.50;52.80;;;;;;5087847;28;20024;-78
2022/08/18 12:09:20;;;;;;;4.00;1.75;;;34.60;53.50;;;;;;5093295;28;19912;-78
2022/08/18 12:12:03;;;;;;;6.03;1.42;;;34.50;52.30;;;;;;5092761;28;20020;-79
2022/08/18 12:15:01;;;;;;;3.75;1.77;;;34.60;52.70;;;;;;5092983;28;20026;-81
2022/08/18 12:17:28;;;;;;;3.72;1.30;;;34.60;52.40;;;;;;5092775;28;20023;-80
2022/08/18 12:19:56;;;;;;;7.05;1.83;;;34.80;53.00;;;;;;5092511;28;20085;-80
2022/08/18 12:22:24;;;;;;;5.43;1.52;;;34.80;53.10;;;;;;5074515;28;20030;-80
2022/08/18 12:24:51;;;;;;;5.03;1.38;;;34.80;52.00;;;;;;5074815;28;20464;-80
2022/08/18 12:27:19;;;;;;;4.43;1.52;;;34.80;51.50;;;;;;5092677;28;20463;-80
2022/08/18 12:29:45;;;;;;;2.63;2.17;;;34.80;52.50;;;;;;5092825;28;20047;-80
2022/08/18 12:32:11;;;;;;;5.53;1.50;;;34.80;52.10;;;;;;5092776;28;20024;-79
2022/08/18 12:34:38;;;;;;;6.30;1.80;;;34.80;52.40;;;;;;5092758;28;20020;-79
2022/08/18 12:37:07;;;;;;;2.85;1.38;;;34.90;52.60;;;;;;5092675;28;20024;-79
2022/08/18 12:39:34;;;;;;;5.03;1.67;;;34.90;53.00;;;;;;5091979;28;20012;-79
2022/08/18 12:42:01;;;;;;;5.63;1.17;;;34.90;53.30;;;;;;5091843;28;20471;-80
2022/08/18 12:44:26;;;;;;;5.32;1.27;;;35.00;53.20;;;;;;5092203;28;20073;-78
2022/08/18 12:46:52;;;;;;;8.25;1.70;;;35.10;53.20;;;;;;5074184;28;20020;-79
2022/08/18 12:49:21;;;;;;;3.58;1.40;;;35.10;53.20;;;;;;5073872;28;20043;-79
2022/08/18 12:51:47;;;;;;;7.60;1.73;;;35.30;53.60;;;;;;5074241;28;20020;-78
2022/08/18 12:54:13;;;;;;;6.60;2.28;;;35.40;53.30;;;;;;5073951;28;20028;-80
2022/08/18 12:56:40;;;;;;;2.92;1.40;;;35.40;52.80;;;;;;5092115;28;20017;-75
2022/08/18 12:59:07;;;;;;;5.68;1.60;;;35.40;52.90;;;;;;5092277;28;20024;-80
2022/08/18 13:01:35;;;;;;;5.88;1.88;;;35.40;52.50;;;;;;5092204;28;20031;-80
2022/08/18 13:04:02;;;;;;;6.35;1.90;;;35.40;53.30;;;;;;5091974;28;20108;-80
2022/08/18 13:06:30;;;;;;;5.30;1.75;;;35.40;53.30;;;;;;5073923;28;20028;-80
2022/08/18 13:08:55;;;;;;;6.75;1.77;;;35.40;53.40;;;;;;5091887;28;20044;-79
2022/08/18 13:11:22;;;;;;;1.67;1.38;;;35.50;54.20;;;;;;5092210;28;20111;-79
2022/08/18 13:13:49;;;;;;;4.15;1.70;;;35.50;53.30;;;;;;5074003;28;20009;-79
2022/08/18 13:16:16;;;;;;;7.10;1.75;;;35.50;53.00;;;;;;5091988;28;20012;-80
2022/08/18 13:18:42;;;;;;;3.88;1.92;;;35.50;53.10;;;;;;5092139;28;20020;-79
2022/08/18 13:21:10;;;;;;;7.13;1.70;;;35.60;53.40;;;;;;5091705;28;20040;-78
2022/08/18 13:23:36;;;;;;;5.35;1.80;;;35.60;53.40;;;;;;5073788;28;20028;-81
2022/08/18 13:26:03;;;;;;;5.80;1.33;;;35.50;53.70;;;;;;5073798;28;20020;-80
2022/08/18 13:28:31;;;;;;;7.82;2.42;;;35.40;53.20;;;;;;5073731;28;20156;-79
2022/08/18 13:30:57;;;;;;;5.68;1.95;;;35.40;52.70;;;;;;5092383;28;20032;-78
2022/08/18 13:33:23;;;;;;;3.40;2.08;;;35.40;53.60;;;;;;5091863;28;20081;-79